Gordon Reid — CGBR — position and weather

sailwx.info

Track history (hours):
 
Tides and Currents Weather Stations Pressure Air Temp Water Temp Dewpoint Dewpoint Depression Visibility Wind Speed Wind Dir Waves Ship Positions

Gordon Reid

Last reported at 2014-Jul-24 02:33 UTC. Time now 2014-Jul-24 14:38 UTC.
Position N 54°17' W 130°22'.

Length 49.95 m; beam 11 m; draft 5.4 m.

Type: SAR. MMSI: 316094000.

Date/timePositionNaut miles runAvg speedWind from/ knotsBaromVisibWave heightAir tempDewpointWater temp
2014-Jul-24 02:33N 54°17' W 130°22'1 1.2
2014-Jul-24 01:31N 54°19' W 130°23'0 0.0
2014-Jul-24 00:31N 54°19' W 130°23'0 0.0
2014-Jul-23 23:31N 54°19' W 130°23'0 0.0
2014-Jul-23 22:31N 54°19' W 130°23'0 0.0
2014-Jul-23 21:31N 54°19' W 130°23'0 0.0
2014-Jul-23 20:31N 54°19' W 130°23'0 0.0
2014-Jul-23 19:31N 54°19' W 130°23'5 4.9
2014-Jul-23 18:33N 54°14' W 130°21'  
2014-Jul-21 12:14N 52°14' W 128°15'7 9.8
2014-Jul-21 11:32N 52°11' W 128°06'0 0.0
2014-Jul-21 10:33N 52°11' W 128°06'0 0.0
2014-Jul-21 09:33N 52°11' W 128°06'6 6.1
2014-Jul-21 08:33N 52°14' W 128°14'45 1.3
2014-Jul-19 21:17N 51°29' W 128°08'7 8.8
2014-Jul-19 20:31N 51°26' W 127°59'6 5.1
2014-Jul-19 19:25N 51°23' W 127°51'4 4.6
2014-Jul-19 18:31N 51°19' W 127°49'4 4.2
2014-Jul-19 17:33N 51°15' W 127°49'5 5.5
2014-Jul-19 16:33N 51°10' W 127°48'6 6.3
2014-Jul-19 15:33N 51°04' W 127°42'5 5.2
2014-Jul-19 14:34N 50°59' W 127°44'8 7.6
2014-Jul-19 13:33N 50°57' W 127°56'6 0.3
2014-Jul-18 20:26N 50°52' W 127°52'1 0.8
2014-Jul-18 19:30N 50°51' W 127°52'0 0.0
2014-Jul-18 18:30N 50°51' W 127°52'0 0.0
2014-Jul-18 17:30N 50°51' W 127°52'0 0.0
2014-Jul-18 16:30N 50°51' W 127°52'0 0.0
2014-Jul-18 15:30N 50°51' W 127°52'0 0.0
2014-Jul-18 14:30N 50°51' W 127°52'0 0.0
2014-Jul-18 13:24N 50°51' W 127°52'0 0.0
2014-Jul-18 12:30N 50°51' W 127°52'0 0.0
2014-Jul-18 11:33N 50°51' W 127°52'0 0.0
2014-Jul-18 10:33N 50°51' W 127°52'0 0.0
2014-Jul-18 09:27N 50°51' W 127°52'0 0.0
2014-Jul-18 08:27N 50°51' W 127°52'0 0.0
2014-Jul-18 07:33N 50°51' W 127°52'0 0.0
2014-Jul-18 06:33N 50°51' W 127°52'0 0.0
2014-Jul-18 05:33N 50°51' W 127°52'0 0.0
2014-Jul-18 04:33N 50°51' W 127°52'0 0.0
2014-Jul-18 03:33N 50°51' W 127°52'0 0.0
2014-Jul-18 02:33N 50°51' W 127°52'0 0.0
2014-Jul-18 01:33N 50°51' W 127°52'7 7.3
2014-Jul-18 00:33N 50°50' W 127°40'9 9.4
2014-Jul-17 23:33N 50°44' W 127°28'1 0.0
2014-Jul-17 02:15N 50°43' W 127°29'0 0.0
2014-Jul-17 01:28N 50°43' W 127°29'0 0.0
2014-Jul-17 00:34N 50°43' W 127°29'0 0.0
2014-Jul-16 23:34N 50°43' W 127°29'0 0.0
2014-Jul-16 22:33N 50°43' W 127°29'0 0.0
2014-Jul-16 21:34N 50°43' W 127°29'0 0.1
2014-Jul-16 18:19N 50°43' W 127°29'1 1.0
2014-Jul-16 17:27N 50°43' W 127°28'0 0.0
2014-Jul-16 16:33N 50°43' W 127°28'0 0.0
2014-Jul-16 15:33N 50°43' W 127°28'1 0.1
2014-Jul-16 02:11N 50°43' W 127°29'0 0.0
2014-Jul-16 01:29N 50°43' W 127°29'4 4.1
2014-Jul-16 00:33N 50°47' W 127°31'7 7.0
2014-Jul-15 23:33N 50°53' W 127°37'9 8.9
2014-Jul-15 22:34N 50°59' W 127°47'9 9.2
2014-Jul-15 21:33N 51°08' W 127°52'1311.6
2014-Jul-15 20:27N 51°21' W 127°52'1011.3
2014-Jul-15 19:33N 51°31' W 127°51'29 9.4
2014-Jul-15 16:32N 51°59' W 127°56'12 0.9
2014-Jul-15 03:17N 52°09' W 128°07'0 0.0
2014-Jul-15 02:23N 52°09' W 128°07'0 0.0
2014-Jul-14 21:21N 52°09' W 128°07'  
Track history (hours):
 
Tides and Currents Weather Stations Pressure Air Temp Water Temp Dewpoint Dewpoint Depression Visibility Wind Speed Wind Dir Waves Ship Positions

Gordon Reid

Last reported at 2014-Jul-24 02:33 UTC. Time now 2014-Jul-24 14:38 UTC.
Position N 54°17' W 130°22'.

Length 49.95 m; beam 11 m; draft 5.4 m.

Type: SAR. MMSI: 316094000.

Date/timePositionNaut miles runAvg speedWind from/ knotsBaromVisibWave heightAir tempDewpointWater temp
2014-Jul-24 02:33N 54°17' W 130°22'1 1.2
2014-Jul-24 01:31N 54°19' W 130°23'0 0.0
2014-Jul-24 00:31N 54°19' W 130°23'0 0.0
2014-Jul-23 23:31N 54°19' W 130°23'0 0.0
2014-Jul-23 22:31N 54°19' W 130°23'0 0.0
2014-Jul-23 21:31N 54°19' W 130°23'0 0.0
2014-Jul-23 20:31N 54°19' W 130°23'0 0.0
2014-Jul-23 19:31N 54°19' W 130°23'5 4.9
2014-Jul-23 18:33N 54°14' W 130°21'  
2014-Jul-21 12:14N 52°14' W 128°15'7 9.8
2014-Jul-21 11:32N 52°11' W 128°06'0 0.0
2014-Jul-21 10:33N 52°11' W 128°06'0 0.0
2014-Jul-21 09:33N 52°11' W 128°06'6 6.1
2014-Jul-21 08:33N 52°14' W 128°14'45 1.3
2014-Jul-19 21:17N 51°29' W 128°08'7 8.8
2014-Jul-19 20:31N 51°26' W 127°59'6 5.1
2014-Jul-19 19:25N 51°23' W 127°51'4 4.6
2014-Jul-19 18:31N 51°19' W 127°49'4 4.2
2014-Jul-19 17:33N 51°15' W 127°49'5 5.5
2014-Jul-19 16:33N 51°10' W 127°48'6 6.3
2014-Jul-19 15:33N 51°04' W 127°42'5 5.2
2014-Jul-19 14:34N 50°59' W 127°44'8 7.6
2014-Jul-19 13:33N 50°57' W 127°56'6 0.3
2014-Jul-18 20:26N 50°52' W 127°52'1 0.8
2014-Jul-18 19:30N 50°51' W 127°52'0 0.0
2014-Jul-18 18:30N 50°51' W 127°52'0 0.0
2014-Jul-18 17:30N 50°51' W 127°52'0 0.0
2014-Jul-18 16:30N 50°51' W 127°52'0 0.0
2014-Jul-18 15:30N 50°51' W 127°52'0 0.0
2014-Jul-18 14:30N 50°51' W 127°52'0 0.0
2014-Jul-18 13:24N 50°51' W 127°52'0 0.0
2014-Jul-18 12:30N 50°51' W 127°52'0 0.0
2014-Jul-18 11:33N 50°51' W 127°52'0 0.0
2014-Jul-18 10:33N 50°51' W 127°52'0 0.0
2014-Jul-18 09:27N 50°51' W 127°52'0 0.0
2014-Jul-18 08:27N 50°51' W 127°52'0 0.0
2014-Jul-18 07:33N 50°51' W 127°52'0 0.0
2014-Jul-18 06:33N 50°51' W 127°52'0 0.0
2014-Jul-18 05:33N 50°51' W 127°52'0 0.0
2014-Jul-18 04:33N 50°51' W 127°52'0 0.0
2014-Jul-18 03:33N 50°51' W 127°52'0 0.0
2014-Jul-18 02:33N 50°51' W 127°52'0 0.0
2014-Jul-18 01:33N 50°51' W 127°52'7 7.3
2014-Jul-18 00:33N 50°50' W 127°40'9 9.4
2014-Jul-17 23:33N 50°44' W 127°28'1 0.0
2014-Jul-17 02:15N 50°43' W 127°29'0 0.0
2014-Jul-17 01:28N 50°43' W 127°29'0 0.0
2014-Jul-17 00:34N 50°43' W 127°29'0 0.0
2014-Jul-16 23:34N 50°43' W 127°29'0 0.0
2014-Jul-16 22:33N 50°43' W 127°29'0 0.0
2014-Jul-16 21:34N 50°43' W 127°29'0 0.1
2014-Jul-16 18:19N 50°43' W 127°29'1 1.0
2014-Jul-16 17:27N 50°43' W 127°28'0 0.0
2014-Jul-16 16:33N 50°43' W 127°28'0 0.0
2014-Jul-16 15:33N 50°43' W 127°28'1 0.1
2014-Jul-16 02:11N 50°43' W 127°29'0 0.0
2014-Jul-16 01:29N 50°43' W 127°29'4 4.1
2014-Jul-16 00:33N 50°47' W 127°31'7 7.0
2014-Jul-15 23:33N 50°53' W 127°37'9 8.9
2014-Jul-15 22:34N 50°59' W 127°47'9 9.2
2014-Jul-15 21:33N 51°08' W 127°52'1311.6
2014-Jul-15 20:27N 51°21' W 127°52'1011.3
2014-Jul-15 19:33N 51°31' W 127°51'29 9.4
2014-Jul-15 16:32N 51°59' W 127°56'12 0.9
2014-Jul-15 03:17N 52°09' W 128°07'0 0.0
2014-Jul-15 02:23N 52°09' W 128°07'0 0.0
2014-Jul-14 21:21N 52°09' W 128°07'  

Dump ship's entire track history